sensor_id;sensor_type;location;lat;lon;timestamp;pressure;altitude;pressure_sealevel;temperature;humidity
66385;BME280;53426;55.872;37.462;2023-07-08T00:01:57;99097.25;;;18.96;87.76
66385;BME280;53426;55.872;37.462;2023-07-08T00:04:25;99077.91;;;18.79;88.42
66385;BME280;53426;55.872;37.462;2023-07-08T00:06:52;99105.69;;;18.93;87.99
66385;BME280;53426;55.872;37.462;2023-07-08T00:09:21;99051.25;;;18.56;87.69
66385;BME280;53426;55.872;37.462;2023-07-08T00:11:46;99100.00;;;18.81;87.53
66385;BME280;53426;55.872;37.462;2023-07-08T00:14:28;99104.78;;;18.86;87.78
66385;BME280;53426;55.872;37.462;2023-07-08T00:16:55;99107.47;;;18.86;87.55
66385;BME280;53426;55.872;37.462;2023-07-08T00:19:21;99099.53;;;18.77;87.71
66385;BME280;53426;55.872;37.462;2023-07-08T00:21:50;99108.22;;;18.79;87.75
66385;BME280;53426;55.872;37.462;2023-07-08T00:24:18;99105.66;;;18.71;88.14
66385;BME280;53426;55.872;37.462;2023-07-08T00:26:47;99119.53;;;18.75;87.90
66385;BME280;53426;55.872;37.462;2023-07-08T00:29:15;99118.88;;;18.73;87.91
66385;BME280;53426;55.872;37.462;2023-07-08T00:31:43;99119.28;;;18.70;87.86
66385;BME280;53426;55.872;37.462;2023-07-08T00:34:10;99114.69;;;18.64;88.08
66385;BME280;53426;55.872;37.462;2023-07-08T00:36:36;99091.19;;;18.51;87.95
66385;BME280;53426;55.872;37.462;2023-07-08T00:39:12;99084.88;;;18.37;87.72
66385;BME280;53426;55.872;37.462;2023-07-08T00:41:40;99117.53;;;18.62;87.76
66385;BME280;53426;55.872;37.462;2023-07-08T00:44:11;99130.28;;;18.60;87.62
66385;BME280;53426;55.872;37.462;2023-07-08T00:47:04;99106.44;;;18.51;88.00
66385;BME280;53426;55.872;37.462;2023-07-08T00:49:39;99093.53;;;18.39;87.82
66385;BME280;53426;55.872;37.462;2023-07-08T00:52:29;99073.25;;;18.30;87.79
66385;BME280;53426;55.872;37.462;2023-07-08T00:54:57;99109.34;;;18.49;87.78
66385;BME280;53426;55.872;37.462;2023-07-08T00:57:31;99067.81;;;18.24;87.40
66385;BME280;53426;55.872;37.462;2023-07-08T01:00:03;99118.56;;;18.61;87.37
66385;BME280;53426;55.872;37.462;2023-07-08T01:02:35;99100.91;;;18.52;86.93
66385;BME280;53426;55.872;37.462;2023-07-08T01:05:08;99114.75;;;18.70;86.88
66385;BME280;53426;55.872;37.462;2023-07-08T01:07:41;99082.13;;;18.52;86.70
66385;BME280;53426;55.872;37.462;2023-07-08T01:10:10;99117.94;;;18.80;86.77
66385;BME280;53426;55.872;37.462;2023-07-08T01:12:44;99098.53;;;18.78;85.80
66385;BME280;53426;55.872;37.462;2023-07-08T01:15:12;99104.38;;;18.89;85.55
66385;BME280;53426;55.872;37.462;2023-07-08T01:17:47;99148.34;;;19.09;85.32
66385;BME280;53426;55.872;37.462;2023-07-08T01:20:19;99115.25;;;19.02;84.98
66385;BME280;53426;55.872;37.462;2023-07-08T01:22:45;99118.94;;;19.01;85.21
66385;BME280;53426;55.872;37.462;2023-07-08T01:25:12;99121.88;;;19.06;84.93
66385;BME280;53426;55.872;37.462;2023-07-08T01:27:45;99139.13;;;19.18;85.38
66385;BME280;53426;55.872;37.462;2023-07-08T01:30:14;99136.88;;;19.21;84.75
66385;BME280;53426;55.872;37.462;2023-07-08T01:32:47;99081.66;;;18.85;84.16
66385;BME280;53426;55.872;37.462;2023-07-08T01:35:15;99119.63;;;19.09;84.15
66385;BME280;53426;55.872;37.462;2023-07-08T01:37:49;99138.34;;;19.24;84.27
66385;BME280;53426;55.872;37.462;2023-07-08T01:42:42;99099.78;;;19.04;84.28
66385;BME280;53426;55.872;37.462;2023-07-08T01:45:13;99134.44;;;19.27;84.04
66385;BME280;53426;55.872;37.462;2023-07-08T01:47:41;99107.44;;;19.07;83.82
66385;BME280;53426;55.872;37.462;2023-07-08T01:50:11;99133.06;;;19.31;83.71
66385;BME280;53426;55.872;37.462;2023-07-08T01:52:41;99112.94;;;19.20;83.43
66385;BME280;53426;55.872;37.462;2023-07-08T01:55:09;99106.69;;;19.13;83.07
66385;BME280;53426;55.872;37.462;2023-07-08T01:57:35;99031.16;;;18.67;83.46
66385;BME280;53426;55.872;37.462;2023-07-08T02:00:01;99125.31;;;19.21;82.73
66385;BME280;53426;55.872;37.462;2023-07-08T02:02:30;99144.03;;;19.36;82.63
66385;BME280;53426;55.872;37.462;2023-07-08T02:04:56;99112.72;;;19.21;82.87
66385;BME280;53426;55.872;37.462;2023-07-08T02:07:22;99138.25;;;19.39;82.21
66385;BME280;53426;55.872;37.462;2023-07-08T02:09:49;99140.56;;;19.42;82.31
66385;BME280;53426;55.872;37.462;2023-07-08T02:12:30;99113.44;;;19.30;81.94
66385;BME280;53426;55.872;37.462;2023-07-08T02:15:04;99081.19;;;19.02;81.64
66385;BME280;53426;55.872;37.462;2023-07-08T02:17:33;99022.59;;;18.78;81.44
66385;BME280;53426;55.872;37.462;2023-07-08T02:20:19;99085.22;;;19.13;81.44
66385;BME280;53426;55.872;37.462;2023-07-08T02:22:45;99003.13;;;18.69;81.25
66385;BME280;53426;55.872;37.462;2023-07-08T02:25:11;99103.00;;;19.20;81.15
66385;BME280;53426;55.872;37.462;2023-07-08T02:27:37;99039.69;;;18.98;80.90
66385;BME280;53426;55.872;37.462;2023-07-08T02:30:04;99105.84;;;19.40;80.98
66385;BME280;53426;55.872;37.462;2023-07-08T02:32:34;99103.16;;;19.40;80.72
66385;BME280;53426;55.872;37.462;2023-07-08T02:35:02;99115.44;;;19.49;80.69
66385;BME280;53426;55.872;37.462;2023-07-08T02:37:30;99074.56;;;19.26;80.69
66385;BME280;53426;55.872;37.462;2023-07-08T02:39:56;99099.75;;;19.46;80.49
66385;BME280;53426;55.872;37.462;2023-07-08T02:42:25;99118.59;;;19.59;80.30
66385;BME280;53426;55.872;37.462;2023-07-08T02:44:51;99109.09;;;19.57;79.92
66385;BME280;53426;55.872;37.462;2023-07-08T02:47:17;99087.25;;;19.39;80.04
66385;BME280;53426;55.872;37.462;2023-07-08T02:49:43;99080.44;;;19.36;80.46
66385;BME280;53426;55.872;37.462;2023-07-08T02:52:09;99089.94;;;19.39;80.28
66385;BME280;53426;55.872;37.462;2023-07-08T02:54:35;99056.13;;;19.16;80.94
66385;BME280;53426;55.872;37.462;2023-07-08T02:57:08;99082.59;;;19.26;81.02
66385;BME280;53426;55.872;37.462;2023-07-08T02:59:34;99119.78;;;19.50;81.01
66385;BME280;53426;55.872;37.462;2023-07-08T03:02:00;98993.84;;;18.72;81.01
66385;BME280;53426;55.872;37.462;2023-07-08T03:04:26;99084.91;;;19.29;80.40
66385;BME280;53426;55.872;37.462;2023-07-08T03:06:52;99097.41;;;19.43;80.34
66385;BME280;53426;55.872;37.462;2023-07-08T03:09:21;99119.25;;;19.61;80.42
66385;BME280;53426;55.872;37.462;2023-07-08T03:11:47;99094.78;;;19.50;80.12
66385;BME280;53426;55.872;37.462;2023-07-08T03:14:20;99082.53;;;19.41;79.82
66385;BME280;53426;55.872;37.462;2023-07-08T03:16:49;98991.22;;;18.78;79.44
66385;BME280;53426;55.872;37.462;2023-07-08T03:19:17;99064.63;;;19.20;79.68
66385;BME280;53426;55.872;37.462;2023-07-08T03:21:43;99080.47;;;19.43;79.75
66385;BME280;53426;55.872;37.462;2023-07-08T03:24:10;99085.06;;;19.49;79.46
66385;BME280;53426;55.872;37.462;2023-07-08T03:26:43;99113.94;;;19.75;79.25
66385;BME280;53426;55.872;37.462;2023-07-08T03:29:28;99077.47;;;19.52;78.61
66385;BME280;53426;55.872;37.462;2023-07-08T03:31:54;99111.34;;;19.88;77.96
66385;BME280;53426;55.872;37.462;2023-07-08T03:34:24;99084.88;;;19.85;77.79
66385;BME280;53426;55.872;37.462;2023-07-08T03:36:50;99086.53;;;19.86;77.28
66385;BME280;53426;55.872;37.462;2023-07-08T03:39:22;99004.34;;;19.50;77.09
66385;BME280;53426;55.872;37.462;2023-07-08T03:41:51;99096.81;;;20.17;77.12
66385;BME280;53426;55.872;37.462;2023-07-08T03:44:19;99099.13;;;20.26;76.71
66385;BME280;53426;55.872;37.462;2023-07-08T03:46:48;99096.91;;;20.36;75.71
66385;BME280;53426;55.872;37.462;2023-07-08T03:49:19;99067.25;;;20.17;75.07
66385;BME280;53426;55.872;37.462;2023-07-08T03:51:50;99066.72;;;20.34;75.06
66385;BME280;53426;55.872;37.462;2023-07-08T03:54:19;99110.41;;;20.63;74.73
66385;BME280;53426;55.872;37.462;2023-07-08T03:56:47;99114.59;;;20.72;74.12
66385;BME280;53426;55.872;37.462;2023-07-08T03:59:13;99129.72;;;20.73;73.95
66385;BME280;53426;55.872;37.462;2023-07-08T04:01:39;99093.22;;;20.44;73.74
66385;BME280;53426;55.872;37.462;2023-07-08T04:04:13;99036.56;;;19.98;74.07
66385;BME280;53426;55.872;37.462;2023-07-08T04:06:43;99100.56;;;20.22;73.92
66385;BME280;53426;55.872;37.462;2023-07-08T04:09:09;99138.25;;;20.35;74.61
66385;BME280;53426;55.872;37.462;2023-07-08T04:11:35;99083.31;;;20.03;74.52
66385;BME280;53426;55.872;37.462;2023-07-08T04:14:01;99070.66;;;19.97;74.58
66385;BME280;53426;55.872;37.462;2023-07-08T04:16:35;99119.88;;;20.39;74.61
66385;BME280;53426;55.872;37.462;2023-07-08T04:19:03;99121.94;;;20.37;74.74
66385;BME280;53426;55.872;37.462;2023-07-08T04:21:29;99114.81;;;20.29;74.39
66385;BME280;53426;55.872;37.462;2023-07-08T04:23:56;99113.66;;;20.32;74.07
66385;BME280;53426;55.872;37.462;2023-07-08T04:26:22;99078.38;;;20.07;74.26
66385;BME280;53426;55.872;37.462;2023-07-08T04:28:48;99100.75;;;20.21;74.22
66385;BME280;53426;55.872;37.462;2023-07-08T04:31:14;99117.94;;;20.26;73.98
66385;BME280;53426;55.872;37.462;2023-07-08T04:33:40;99132.53;;;20.45;73.43
66385;BME280;53426;55.872;37.462;2023-07-08T04:36:12;99108.09;;;20.46;72.73
66385;BME280;53426;55.872;37.462;2023-07-08T04:38:39;99103.34;;;20.42;72.06
66385;BME280;53426;55.872;37.462;2023-07-08T04:41:06;99136.94;;;20.66;71.73
66385;BME280;53426;55.872;37.462;2023-07-08T04:43:33;99146.88;;;20.72;71.72
66385;BME280;53426;55.872;37.462;2023-07-08T04:46:01;99152.66;;;20.75;71.78
66385;BME280;53426;55.872;37.462;2023-07-08T04:48:28;99115.16;;;20.54;71.40
66385;BME280;53426;55.872;37.462;2023-07-08T04:50:54;99143.75;;;20.75;71.22
66385;BME280;53426;55.872;37.462;2023-07-08T04:53:20;99148.13;;;20.76;71.74
66385;BME280;53426;55.872;37.462;2023-07-08T04:55:56;99145.59;;;20.68;71.62
66385;BME280;53426;55.872;37.462;2023-07-08T04:58:22;99151.19;;;20.60;71.83
66385;BME280;53426;55.872;37.462;2023-07-08T05:00:48;99144.97;;;20.59;72.10
66385;BME280;53426;55.872;37.462;2023-07-08T05:03:14;99078.00;;;20.17;72.39
66385;BME280;53426;55.872;37.462;2023-07-08T05:05:40;99136.44;;;20.42;71.88
66385;BME280;53426;55.872;37.462;2023-07-08T05:08:06;99123.38;;;20.33;72.23
66385;BME280;53426;55.872;37.462;2023-07-08T05:10:33;99086.44;;;20.07;72.64
66385;BME280;53426;55.872;37.462;2023-07-08T05:12:59;99137.03;;;20.38;72.37
66385;BME280;53426;55.872;37.462;2023-07-08T05:15:25;99121.56;;;20.40;72.62
66385;BME280;53426;55.872;37.462;2023-07-08T05:17:52;99126.91;;;20.46;72.49
66385;BME280;53426;55.872;37.462;2023-07-08T05:20:18;99121.66;;;20.25;72.25
66385;BME280;53426;55.872;37.462;2023-07-08T05:22:45;99130.59;;;20.32;72.07
66385;BME280;53426;55.872;37.462;2023-07-08T05:25:12;99121.41;;;20.20;72.22
66385;BME280;53426;55.872;37.462;2023-07-08T05:27:38;99123.31;;;20.26;72.63
66385;BME280;53426;55.872;37.462;2023-07-08T05:30:06;99119.88;;;20.39;72.21
66385;BME280;53426;55.872;37.462;2023-07-08T05:32:34;99122.00;;;20.50;71.61
66385;BME280;53426;55.872;37.462;2023-07-08T05:35:01;99112.47;;;20.54;71.50
66385;BME280;53426;55.872;37.462;2023-07-08T05:37:30;99113.53;;;20.60;70.32
66385;BME280;53426;55.872;37.462;2023-07-08T05:39:56;99131.97;;;20.76;70.54
66385;BME280;53426;55.872;37.462;2023-07-08T05:42:23;99133.66;;;20.90;70.05
66385;BME280;53426;55.872;37.462;2023-07-08T05:44:49;99114.00;;;20.83;69.55
66385;BME280;53426;55.872;37.462;2023-07-08T05:47:18;99124.56;;;21.04;69.25
66385;BME280;53426;55.872;37.462;2023-07-08T05:49:44;99114.22;;;21.08;68.66
66385;BME280;53426;55.872;37.462;2023-07-08T05:52:13;99140.16;;;21.22;68.42
66385;BME280;53426;55.872;37.462;2023-07-08T05:54:40;99146.13;;;21.17;68.48
66385;BME280;53426;55.872;37.462;2023-07-08T05:57:09;99145.53;;;21.15;68.00
66385;BME280;53426;55.872;37.462;2023-07-08T05:59:37;99129.53;;;21.01;68.69
66385;BME280;53426;55.872;37.462;2023-07-08T06:02:10;99145.94;;;21.25;68.11
66385;BME280;53426;55.872;37.462;2023-07-08T06:04:36;99114.63;;;21.11;67.73
66385;BME280;53426;55.872;37.462;2023-07-08T06:07:02;99127.09;;;21.19;67.40
66385;BME280;53426;55.872;37.462;2023-07-08T06:09:28;99131.66;;;21.25;67.24
66385;BME280;53426;55.872;37.462;2023-07-08T06:11:54;99127.50;;;21.36;67.20
66385;BME280;53426;55.872;37.462;2023-07-08T06:14:20;99125.00;;;21.54;66.66
66385;BME280;53426;55.872;37.462;2023-07-08T06:16:46;99124.38;;;21.58;66.69
66385;BME280;53426;55.872;37.462;2023-07-08T06:19:12;99145.72;;;21.60;66.44
66385;BME280;53426;55.872;37.462;2023-07-08T06:21:40;99132.88;;;21.55;66.48
66385;BME280;53426;55.872;37.462;2023-07-08T06:24:06;99132.47;;;21.58;67.23
66385;BME280;53426;55.872;37.462;2023-07-08T06:26:32;99130.00;;;21.44;66.23
66385;BME280;53426;55.872;37.462;2023-07-08T06:28:58;99139.31;;;21.48;66.45
66385;BME280;53426;55.872;37.462;2023-07-08T06:31:24;99129.38;;;21.35;66.48
66385;BME280;53426;55.872;37.462;2023-07-08T06:33:50;99134.13;;;21.40;66.67
66385;BME280;53426;55.872;37.462;2023-07-08T06:36:18;99134.97;;;21.47;66.99
66385;BME280;53426;55.872;37.462;2023-07-08T06:38:44;99057.06;;;20.86;66.78
66385;BME280;53426;55.872;37.462;2023-07-08T06:41:09;99135.19;;;21.25;67.04
66385;BME280;53426;55.872;37.462;2023-07-08T06:43:35;99133.31;;;21.19;66.89
66385;BME280;53426;55.872;37.462;2023-07-08T06:46:11;99139.50;;;21.46;67.45
66385;BME280;53426;55.872;37.462;2023-07-08T06:48:37;99132.91;;;21.49;65.05
66385;BME280;53426;55.872;37.462;2023-07-08T06:51:03;99121.69;;;21.52;64.71
66385;BME280;53426;55.872;37.462;2023-07-08T06:53:29;99100.13;;;21.52;64.33
66385;BME280;53426;55.872;37.462;2023-07-08T06:55:55;99096.38;;;21.66;64.71
66385;BME280;53426;55.872;37.462;2023-07-08T06:58:20;99118.13;;;21.97;63.93
66385;BME280;53426;55.872;37.462;2023-07-08T07:00:46;99117.19;;;22.17;63.63
66385;BME280;53426;55.872;37.462;2023-07-08T07:03:12;99123.22;;;22.19;62.65
66385;BME280;53426;55.872;37.462;2023-07-08T07:05:39;99113.84;;;22.21;62.40
66385;BME280;53426;55.872;37.462;2023-07-08T07:08:06;99122.63;;;22.10;62.98
66385;BME280;53426;55.872;37.462;2023-07-08T07:10:34;99099.66;;;21.94;63.10
66385;BME280;53426;55.872;37.462;2023-07-08T07:13:00;99123.50;;;21.97;63.44
66385;BME280;53426;55.872;37.462;2023-07-08T07:15:26;99104.88;;;21.76;63.68
66385;BME280;53426;55.872;37.462;2023-07-08T07:17:53;99107.13;;;21.79;63.65
66385;BME280;53426;55.872;37.462;2023-07-08T07:20:20;99104.63;;;21.97;63.37
66385;BME280;53426;55.872;37.462;2023-07-08T07:22:46;99114.94;;;22.14;63.34
66385;BME280;53426;55.872;37.462;2023-07-08T07:25:13;99120.56;;;22.05;63.13
66385;BME280;53426;55.872;37.462;2023-07-08T07:27:39;99113.75;;;22.03;63.01
66385;BME280;53426;55.872;37.462;2023-07-08T07:30:08;99109.78;;;22.05;63.09
66385;BME280;53426;55.872;37.462;2023-07-08T07:32:38;99105.00;;;22.14;63.22
66385;BME280;53426;55.872;37.462;2023-07-08T07:35:05;99110.31;;;22.27;62.79
66385;BME280;53426;55.872;37.462;2023-07-08T07:37:31;99106.97;;;22.32;62.34
66385;BME280;53426;55.872;37.462;2023-07-08T07:39:57;99117.91;;;22.43;61.90
66385;BME280;53426;55.872;37.462;2023-07-08T07:42:23;99097.38;;;22.42;61.54
66385;BME280;53426;55.872;37.462;2023-07-08T07:44:49;99105.94;;;22.71;60.89
66385;BME280;53426;55.872;37.462;2023-07-08T07:47:15;99116.91;;;22.82;60.70
66385;BME280;53426;55.872;37.462;2023-07-08T07:49:41;99117.22;;;22.92;60.55
66385;BME280;53426;55.872;37.462;2023-07-08T07:52:07;99122.38;;;23.01;59.88
66385;BME280;53426;55.872;37.462;2023-07-08T07:54:33;99101.34;;;22.78;59.73
66385;BME280;53426;55.872;37.462;2023-07-08T07:56:59;99116.09;;;23.07;59.72
66385;BME280;53426;55.872;37.462;2023-07-08T07:59:25;99119.25;;;23.28;58.69
66385;BME280;53426;55.872;37.462;2023-07-08T08:01:51;99120.72;;;23.56;57.26
66385;BME280;53426;55.872;37.462;2023-07-08T08:04:17;99113.28;;;23.45;57.08
66385;BME280;53426;55.872;37.462;2023-07-08T08:06:49;99074.22;;;23.22;57.04
66385;BME280;53426;55.872;37.462;2023-07-08T08:12:34;99128.00;;;23.55;58.56
66385;BME280;53426;55.872;37.462;2023-07-08T08:14:59;99139.31;;;23.14;58.44
66385;BME280;53426;55.872;37.462;2023-07-08T08:17:25;99125.97;;;22.94;57.65
66385;BME280;53426;55.872;37.462;2023-07-08T08:19:51;99083.63;;;22.50;58.26
66385;BME280;53426;55.872;37.462;2023-07-08T08:22:17;99132.16;;;22.64;58.63
66385;BME280;53426;55.872;37.462;2023-07-08T08:24:43;99140.44;;;22.62;58.68
66385;BME280;53426;55.872;37.462;2023-07-08T08:27:08;99111.50;;;22.38;57.95
66385;BME280;53426;55.872;37.462;2023-07-08T08:29:36;99138.78;;;22.61;57.85
66385;BME280;53426;55.872;37.462;2023-07-08T08:32:27;99147.97;;;22.91;58.00
66385;BME280;53426;55.872;37.462;2023-07-08T08:34:53;99042.66;;;22.35;57.30
66385;BME280;53426;55.872;37.462;2023-07-08T08:37:19;99145.28;;;22.91;56.56
66385;BME280;53426;55.872;37.462;2023-07-08T08:39:45;99143.16;;;23.00;56.74
66385;BME280;53426;55.872;37.462;2023-07-08T08:42:26;99128.84;;;23.24;56.90
66385;BME280;53426;55.872;37.462;2023-07-08T08:44:52;99138.06;;;23.66;56.38
66385;BME280;53426;55.872;37.462;2023-07-08T08:47:38;99135.88;;;24.18;54.22
66385;BME280;53426;55.872;37.462;2023-07-08T08:50:34;99140.00;;;24.69;53.03
66385;BME280;53426;55.872;37.462;2023-07-08T08:53:08;99140.41;;;24.84;51.76
66385;BME280;53426;55.872;37.462;2023-07-08T08:55:36;99132.94;;;24.68;52.06
66385;BME280;53426;55.872;37.462;2023-07-08T09:00:54;99150.84;;;24.69;52.32
66385;BME280;53426;55.872;37.462;2023-07-08T09:03:36;99147.97;;;24.82;51.86
66385;BME280;53426;55.872;37.462;2023-07-08T09:06:19;99143.72;;;24.86;51.88
66385;BME280;53426;55.872;37.462;2023-07-08T09:08:46;99124.91;;;24.61;52.19
66385;BME280;53426;55.872;37.462;2023-07-08T09:13:54;99146.75;;;24.78;51.33
66385;BME280;53426;55.872;37.462;2023-07-08T09:16:29;99147.22;;;24.75;51.45
66385;BME280;53426;55.872;37.462;2023-07-08T09:19:24;99124.25;;;24.77;52.18
66385;BME280;53426;55.872;37.462;2023-07-08T09:27:16;99137.09;;;25.65;50.69
66385;BME280;53426;55.872;37.462;2023-07-08T09:29:43;99133.34;;;26.41;46.52
66385;BME280;53426;55.872;37.462;2023-07-08T09:32:24;99145.03;;;27.26;45.65
66385;BME280;53426;55.872;37.462;2023-07-08T09:34:53;99140.56;;;27.87;44.02
66385;BME280;53426;55.872;37.462;2023-07-08T09:37:26;99140.75;;;28.19;43.37
66385;BME280;53426;55.872;37.462;2023-07-08T09:39:54;99127.56;;;27.72;42.55
66385;BME280;53426;55.872;37.462;2023-07-08T09:42:22;99141.56;;;27.14;44.32
66385;BME280;53426;55.872;37.462;2023-07-08T09:44:55;99115.88;;;27.38;43.34
66385;BME280;53426;55.872;37.462;2023-07-08T09:47:35;99131.78;;;27.63;43.43
66385;BME280;53426;55.872;37.462;2023-07-08T09:50:04;99129.66;;;28.04;42.41
66385;BME280;53426;55.872;37.462;2023-07-08T09:52:37;99121.97;;;28.01;41.71
66385;BME280;53426;55.872;37.462;2023-07-08T09:55:03;99127.53;;;27.89;42.86
66385;BME280;53426;55.872;37.462;2023-07-08T09:57:32;99144.69;;;27.39;43.10
66385;BME280;53426;55.872;37.462;2023-07-08T10:00:06;99133.72;;;27.18;43.72
66385;BME280;53426;55.872;37.462;2023-07-08T10:02:43;99132.34;;;27.15;44.51
66385;BME280;53426;55.872;37.462;2023-07-08T10:05:32;99115.94;;;27.10;43.43
66385;BME280;53426;55.872;37.462;2023-07-08T10:08:02;99142.56;;;27.25;42.99
66385;BME280;53426;55.872;37.462;2023-07-08T10:10:37;99112.56;;;27.03;43.29
66385;BME280;53426;55.872;37.462;2023-07-08T10:13:10;99110.75;;;26.52;42.61
66385;BME280;53426;55.872;37.462;2023-07-08T10:15:46;99132.78;;;26.39;43.26
66385;BME280;53426;55.872;37.462;2023-07-08T10:18:16;99134.91;;;26.37;43.72
66385;BME280;53426;55.872;37.462;2023-07-08T10:20:47;99133.34;;;26.69;43.61
66385;BME280;53426;55.872;37.462;2023-07-08T10:27:00;99119.31;;;27.34;42.51
66385;BME280;53426;55.872;37.462;2023-07-08T10:29:48;99131.47;;;27.60;41.67
66385;BME280;53426;55.872;37.462;2023-07-08T10:32:23;99119.56;;;26.99;43.10
66385;BME280;53426;55.872;37.462;2023-07-08T10:35:16;99122.22;;;26.82;44.32
66385;BME280;53426;55.872;37.462;2023-07-08T10:40:54;99116.09;;;25.72;46.44
66385;BME280;53426;55.872;37.462;2023-07-08T10:43:47;99139.66;;;25.36;47.15
66385;BME280;53426;55.872;37.462;2023-07-08T10:46:18;99142.06;;;25.03;47.99
66385;BME280;53426;55.872;37.462;2023-07-08T10:48:59;99141.38;;;25.19;47.67
66385;BME280;53426;55.872;37.462;2023-07-08T10:51:37;99144.72;;;25.45;47.19
66385;BME280;53426;55.872;37.462;2023-07-08T11:07:46;99113.56;;;26.29;44.31
66385;BME280;53426;55.872;37.462;2023-07-08T11:10:23;99110.50;;;26.25;43.92
66385;BME280;53426;55.872;37.462;2023-07-08T11:15:32;99123.31;;;26.70;44.07
66385;BME280;53426;55.872;37.462;2023-07-08T11:21:11;99120.84;;;26.96;42.61
66385;BME280;53426;55.872;37.462;2023-07-08T11:23:46;99122.69;;;26.79;42.77
66385;BME280;53426;55.872;37.462;2023-07-08T11:26:31;99134.03;;;26.76;43.35
66385;BME280;53426;55.872;37.462;2023-07-08T11:29:00;99112.03;;;26.61;42.79
66385;BME280;53426;55.872;37.462;2023-07-08T11:31:30;99132.25;;;26.53;42.94
66385;BME280;53426;55.872;37.462;2023-07-08T11:33:57;99136.75;;;26.48;43.41
66385;BME280;53426;55.872;37.462;2023-07-08T11:36:27;99112.63;;;26.35;43.67
66385;BME280;53426;55.872;37.462;2023-07-08T11:38:55;99129.34;;;26.72;43.61
66385;BME280;53426;55.872;37.462;2023-07-08T11:41:31;99090.94;;;26.23;42.60
66385;BME280;53426;55.872;37.462;2023-07-08T11:44:04;99128.00;;;26.46;43.46
66385;BME280;53426;55.872;37.462;2023-07-08T11:46:32;99127.84;;;26.24;42.99
66385;BME280;53426;55.872;37.462;2023-07-08T11:49:15;99111.19;;;26.20;43.52
66385;BME280;53426;55.872;37.462;2023-07-08T11:51:44;99088.09;;;26.18;42.87
66385;BME280;53426;55.872;37.462;2023-07-08T11:54:29;99115.53;;;26.45;43.27
66385;BME280;53426;55.872;37.462;2023-07-08T11:59:24;99064.53;;;26.35;43.78
66385;BME280;53426;55.872;37.462;2023-07-08T12:04:24;99116.84;;;27.16;42.33
66385;BME280;53426;55.872;37.462;2023-07-08T12:07:29;99134.78;;;27.17;41.93
66385;BME280;53426;55.872;37.462;2023-07-08T12:10:05;99120.41;;;27.16;41.83
66385;BME280;53426;55.872;37.462;2023-07-08T12:12:35;99072.16;;;26.78;41.56
66385;BME280;53426;55.872;37.462;2023-07-08T12:15:11;99096.41;;;26.96;40.94
66385;BME280;53426;55.872;37.462;2023-07-08T12:17:41;99117.97;;;27.03;41.08
66385;BME280;53426;55.872;37.462;2023-07-08T12:20:26;99124.03;;;27.22;41.65
66385;BME280;53426;55.872;37.462;2023-07-08T12:22:52;99123.03;;;26.83;42.06
66385;BME280;53426;55.872;37.462;2023-07-08T12:25:22;99113.44;;;26.63;41.69
66385;BME280;53426;55.872;37.462;2023-07-08T12:27:48;99118.03;;;26.63;42.39
66385;BME280;53426;55.872;37.462;2023-07-08T12:30:16;99105.22;;;26.47;41.81
66385;BME280;53426;55.872;37.462;2023-07-08T12:32:43;99115.84;;;26.48;41.57
66385;BME280;53426;55.872;37.462;2023-07-08T12:35:26;99116.28;;;26.57;40.97
66385;BME280;53426;55.872;37.462;2023-07-08T12:37:57;99095.16;;;26.59;41.75
66385;BME280;53426;55.872;37.462;2023-07-08T12:40:26;99087.19;;;26.41;42.02
66385;BME280;53426;55.872;37.462;2023-07-08T12:42:52;99100.00;;;26.29;41.38
66385;BME280;53426;55.872;37.462;2023-07-08T12:45:22;99094.56;;;26.29;43.12
66385;BME280;53426;55.872;37.462;2023-07-08T12:47:49;99087.50;;;26.04;41.61
66385;BME280;53426;55.872;37.462;2023-07-08T12:50:16;99102.19;;;25.80;41.61
66385;BME280;53426;55.872;37.462;2023-07-08T12:52:44;99095.25;;;25.72;42.33
66385;BME280;53426;55.872;37.462;2023-07-08T12:55:12;99107.97;;;25.60;42.35
66385;BME280;53426;55.872;37.462;2023-07-08T12:57:45;99100.28;;;25.46;43.20
66385;BME280;53426;55.872;37.462;2023-07-08T13:00:21;99103.56;;;25.48;42.47
66385;BME280;53426;55.872;37.462;2023-07-08T13:02:58;99107.00;;;25.43;42.75
66385;BME280;53426;55.872;37.462;2023-07-08T13:05:26;99103.69;;;25.18;41.23
66385;BME280;53426;55.872;37.462;2023-07-08T13:07:52;99100.50;;;25.09;42.35
66385;BME280;53426;55.872;37.462;2023-07-08T13:10:24;99089.19;;;25.12;41.09
66385;BME280;53426;55.872;37.462;2023-07-08T13:12:55;99102.38;;;25.20;42.41
66385;BME280;53426;55.872;37.462;2023-07-08T13:15:41;99108.75;;;25.14;41.93
66385;BME280;53426;55.872;37.462;2023-07-08T13:18:16;99105.91;;;25.09;40.77
66385;BME280;53426;55.872;37.462;2023-07-08T13:20:50;99106.16;;;25.19;40.48
66385;BME280;53426;55.872;37.462;2023-07-08T13:23:17;99088.59;;;25.22;40.48
66385;BME280;53426;55.872;37.462;2023-07-08T13:25:43;99102.16;;;25.33;40.04
66385;BME280;53426;55.872;37.462;2023-07-08T13:28:19;99094.75;;;25.52;40.36
66385;BME280;53426;55.872;37.462;2023-07-08T13:30:58;99096.97;;;25.43;39.80
66385;BME280;53426;55.872;37.462;2023-07-08T13:33:30;99088.25;;;25.30;39.79
66385;BME280;53426;55.872;37.462;2023-07-08T13:35:56;99087.06;;;25.26;40.92
66385;BME280;53426;55.872;37.462;2023-07-08T13:38:24;99094.38;;;25.25;40.03
66385;BME280;53426;55.872;37.462;2023-07-08T13:40:55;99082.34;;;24.98;41.31
66385;BME280;53426;55.872;37.462;2023-07-08T13:43:30;99088.31;;;25.00;40.83
66385;BME280;53426;55.872;37.462;2023-07-08T13:45:57;99084.72;;;24.76;40.80
66385;BME280;53426;55.872;37.462;2023-07-08T13:51:00;99081.50;;;24.68;40.67
66385;BME280;53426;55.872;37.462;2023-07-08T13:53:43;99082.56;;;24.67;41.10
66385;BME280;53426;55.872;37.462;2023-07-08T13:56:19;99070.31;;;24.64;41.01